sensor_id;sensor_type;location;lat;lon;timestamp;pressure;altitude;pressure_sealevel;temperature;humidity
6413;BME280;3239;48.714;9.472;2022-08-02T00:01:34;99138.91;;;18.10;100.00
6413;BME280;3239;48.714;9.472;2022-08-02T00:04:00;99130.97;;;18.14;100.00
6413;BME280;3239;48.714;9.472;2022-08-02T00:06:26;99125.97;;;18.13;100.00
6413;BME280;3239;48.714;9.472;2022-08-02T00:08:52;99127.44;;;18.06;100.00
6413;BME280;3239;48.714;9.472;2022-08-02T00:11:18;99128.16;;;17.99;100.00
6413;BME280;3239;48.714;9.472;2022-08-02T00:13:44;99122.97;;;17.96;100.00
6413;BME280;3239;48.714;9.472;2022-08-02T00:16:11;99117.97;;;17.94;100.00
6413;BME280;3239;48.714;9.472;2022-08-02T00:18:37;99114.28;;;17.92;100.00
6413;BME280;3239;48.714;9.472;2022-08-02T00:21:04;99111.16;;;17.95;100.00
6413;BME280;3239;48.714;9.472;2022-08-02T00:23:29;99093.19;;;17.81;100.00
6413;BME280;3239;48.714;9.472;2022-08-02T00:25:55;99097.25;;;17.80;100.00
6413;BME280;3239;48.714;9.472;2022-08-02T00:28:23;99097.63;;;17.84;100.00
6413;BME280;3239;48.714;9.472;2022-08-02T00:30:49;99092.63;;;17.83;100.00
6413;BME280;3239;48.714;9.472;2022-08-02T00:33:15;99096.53;;;17.87;100.00
6413;BME280;3239;48.714;9.472;2022-08-02T00:35:41;99097.09;;;17.86;100.00
6413;BME280;3239;48.714;9.472;2022-08-02T00:38:06;99101.28;;;17.72;100.00
6413;BME280;3239;48.714;9.472;2022-08-02T00:40:33;99113.84;;;17.73;100.00
6413;BME280;3239;48.714;9.472;2022-08-02T00:43:07;99114.56;;;17.66;100.00
6413;BME280;3239;48.714;9.472;2022-08-02T00:45:37;99123.03;;;17.53;100.00
6413;BME280;3239;48.714;9.472;2022-08-02T00:48:05;99139.53;;;17.66;100.00
6413;BME280;3239;48.714;9.472;2022-08-02T00:50:32;99149.69;;;17.71;100.00
6413;BME280;3239;48.714;9.472;2022-08-02T00:52:58;99144.16;;;17.71;100.00
6413;BME280;3239;48.714;9.472;2022-08-02T00:55:25;99138.03;;;17.65;100.00
6413;BME280;3239;48.714;9.472;2022-08-02T00:57:51;99138.78;;;17.65;100.00
6413;BME280;3239;48.714;9.472;2022-08-02T01:00:17;99136.19;;;17.60;100.00
6413;BME280;3239;48.714;9.472;2022-08-02T01:02:43;99123.75;;;17.53;100.00
6413;BME280;3239;48.714;9.472;2022-08-02T01:05:10;99123.38;;;17.49;100.00
6413;BME280;3239;48.714;9.472;2022-08-02T01:07:36;99123.59;;;17.51;100.00
6413;BME280;3239;48.714;9.472;2022-08-02T01:10:03;99119.44;;;17.37;100.00
6413;BME280;3239;48.714;9.472;2022-08-02T01:12:29;99115.78;;;17.42;100.00
6413;BME280;3239;48.714;9.472;2022-08-02T01:14:59;99121.63;;;17.31;100.00
6413;BME280;3239;48.714;9.472;2022-08-02T01:17:49;99126.25;;;17.36;100.00
6413;BME280;3239;48.714;9.472;2022-08-02T01:26:36;99140.16;;;17.08;100.00
6413;BME280;3239;48.714;9.472;2022-08-02T01:29:25;99146.22;;;17.07;100.00
6413;BME280;3239;48.714;9.472;2022-08-02T01:32:17;99160.81;;;17.07;100.00
6413;BME280;3239;48.714;9.472;2022-08-02T01:35:16;99156.00;;;17.08;100.00
6413;BME280;3239;48.714;9.472;2022-08-02T01:38:18;99162.44;;;17.03;100.00
6413;BME280;3239;48.714;9.472;2022-08-02T01:40:43;99165.91;;;16.96;100.00
6413;BME280;3239;48.714;9.472;2022-08-02T01:43:10;99161.25;;;16.91;100.00
6413;BME280;3239;48.714;9.472;2022-08-02T01:45:40;99179.59;;;17.01;100.00
6413;BME280;3239;48.714;9.472;2022-08-02T01:48:08;99181.81;;;17.03;100.00
6413;BME280;3239;48.714;9.472;2022-08-02T01:50:36;99187.56;;;17.05;100.00
6413;BME280;3239;48.714;9.472;2022-08-02T01:53:06;99186.47;;;17.08;100.00
6413;BME280;3239;48.714;9.472;2022-08-02T01:55:41;99181.88;;;16.82;100.00
6413;BME280;3239;48.714;9.472;2022-08-02T01:58:08;99174.06;;;16.53;100.00
6413;BME280;3239;48.714;9.472;2022-08-02T02:00:40;99185.50;;;16.77;100.00
6413;BME280;3239;48.714;9.472;2022-08-02T02:03:21;99186.19;;;16.70;100.00
6413;BME280;3239;48.714;9.472;2022-08-02T02:05:50;99184.16;;;16.71;100.00
6413;BME280;3239;48.714;9.472;2022-08-02T02:08:21;99184.50;;;16.67;100.00
6413;BME280;3239;48.714;9.472;2022-08-02T02:10:49;99199.75;;;16.61;100.00
6413;BME280;3239;48.714;9.472;2022-08-02T02:13:17;99209.13;;;16.78;100.00
6413;BME280;3239;48.714;9.472;2022-08-02T02:15:46;99221.91;;;16.81;100.00
6413;BME280;3239;48.714;9.472;2022-08-02T02:18:33;99224.03;;;16.75;100.00
6413;BME280;3239;48.714;9.472;2022-08-02T02:21:03;99229.66;;;16.83;100.00
6413;BME280;3239;48.714;9.472;2022-08-02T02:23:29;99228.56;;;16.86;100.00
6413;BME280;3239;48.714;9.472;2022-08-02T02:25:55;99226.50;;;16.79;100.00
6413;BME280;3239;48.714;9.472;2022-08-02T02:28:24;99225.88;;;16.73;100.00
6413;BME280;3239;48.714;9.472;2022-08-02T02:31:02;99228.38;;;16.84;100.00
6413;BME280;3239;48.714;9.472;2022-08-02T02:33:32;99220.81;;;16.84;100.00
6413;BME280;3239;48.714;9.472;2022-08-02T02:36:02;99228.56;;;16.86;100.00
6413;BME280;3239;48.714;9.472;2022-08-02T02:38:31;99225.81;;;16.86;100.00
6413;BME280;3239;48.714;9.472;2022-08-02T02:41:00;99230.06;;;16.87;100.00
6413;BME280;3239;48.714;9.472;2022-08-02T02:43:28;99226.94;;;16.90;100.00
6413;BME280;3239;48.714;9.472;2022-08-02T02:45:56;99229.00;;;16.90;100.00
6413;BME280;3239;48.714;9.472;2022-08-02T02:48:22;99226.34;;;16.84;100.00
6413;BME280;3239;48.714;9.472;2022-08-02T02:50:50;99224.13;;;16.83;100.00
6413;BME280;3239;48.714;9.472;2022-08-02T02:53:17;99220.47;;;16.67;100.00
6413;BME280;3239;48.714;9.472;2022-08-02T02:55:45;99214.75;;;16.65;100.00
6413;BME280;3239;48.714;9.472;2022-08-02T02:58:12;99223.44;;;16.69;100.00
6413;BME280;3239;48.714;9.472;2022-08-02T03:00:39;99221.25;;;16.68;100.00
6413;BME280;3239;48.714;9.472;2022-08-02T03:03:24;99222.44;;;16.80;100.00
6413;BME280;3239;48.714;9.472;2022-08-02T03:05:50;99220.63;;;16.82;100.00
6413;BME280;3239;48.714;9.472;2022-08-02T03:08:16;99222.63;;;16.82;100.00
6413;BME280;3239;48.714;9.472;2022-08-02T03:10:43;99216.16;;;16.79;100.00
6413;BME280;3239;48.714;9.472;2022-08-02T03:13:10;99217.44;;;16.78;100.00
6413;BME280;3239;48.714;9.472;2022-08-02T03:15:37;99211.97;;;16.86;100.00
6413;BME280;3239;48.714;9.472;2022-08-02T03:18:04;99201.88;;;16.68;100.00
6413;BME280;3239;48.714;9.472;2022-08-02T03:20:32;99189.38;;;16.54;100.00
6413;BME280;3239;48.714;9.472;2022-08-02T03:22:58;99195.09;;;16.56;100.00
6413;BME280;3239;48.714;9.472;2022-08-02T03:25:24;99198.34;;;16.47;100.00
6413;BME280;3239;48.714;9.472;2022-08-02T03:27:50;99201.72;;;16.53;100.00
6413;BME280;3239;48.714;9.472;2022-08-02T03:30:16;99203.81;;;16.60;100.00
6413;BME280;3239;48.714;9.472;2022-08-02T03:32:44;99200.50;;;16.61;100.00
6413;BME280;3239;48.714;9.472;2022-08-02T03:35:14;99205.81;;;16.59;100.00
6413;BME280;3239;48.714;9.472;2022-08-02T03:37:41;99202.06;;;16.49;100.00
6413;BME280;3239;48.714;9.472;2022-08-02T03:40:09;99198.03;;;16.50;100.00
6413;BME280;3239;48.714;9.472;2022-08-02T03:42:36;99193.22;;;16.51;100.00
6413;BME280;3239;48.714;9.472;2022-08-02T03:45:03;99191.00;;;16.49;100.00
6413;BME280;3239;48.714;9.472;2022-08-02T03:47:30;99190.59;;;16.45;100.00
6413;BME280;3239;48.714;9.472;2022-08-02T03:49:56;99191.00;;;16.49;100.00
6413;BME280;3239;48.714;9.472;2022-08-02T03:52:23;99196.56;;;16.57;100.00
6413;BME280;3239;48.714;9.472;2022-08-02T03:54:51;99182.97;;;16.59;100.00
6413;BME280;3239;48.714;9.472;2022-08-02T03:57:16;99190.31;;;16.56;100.00
6413;BME280;3239;48.714;9.472;2022-08-02T03:59:44;99188.50;;;16.59;100.00
6413;BME280;3239;48.714;9.472;2022-08-02T04:02:11;99184.38;;;16.52;100.00
6413;BME280;3239;48.714;9.472;2022-08-02T04:04:38;99184.78;;;16.56;100.00
6413;BME280;3239;48.714;9.472;2022-08-02T04:07:04;99187.34;;;16.54;100.00
6413;BME280;3239;48.714;9.472;2022-08-02T04:09:30;99191.13;;;16.44;100.00
6413;BME280;3239;48.714;9.472;2022-08-02T04:11:56;99203.66;;;16.45;100.00
6413;BME280;3239;48.714;9.472;2022-08-02T04:14:23;99203.66;;;16.45;100.00
6413;BME280;3239;48.714;9.472;2022-08-02T04:17:00;99215.16;;;16.49;100.00
6413;BME280;3239;48.714;9.472;2022-08-02T04:19:33;99216.03;;;16.44;100.00
6413;BME280;3239;48.714;9.472;2022-08-02T04:22:02;99223.91;;;16.40;100.00
6413;BME280;3239;48.714;9.472;2022-08-02T04:24:37;99236.34;;;16.33;100.00
6413;BME280;3239;48.714;9.472;2022-08-02T04:27:04;99246.53;;;16.38;100.00
6413;BME280;3239;48.714;9.472;2022-08-02T04:29:32;99257.50;;;16.44;100.00
6413;BME280;3239;48.714;9.472;2022-08-02T04:31:58;99265.91;;;16.51;100.00
6413;BME280;3239;48.714;9.472;2022-08-02T04:34:25;99271.09;;;16.55;100.00
6413;BME280;3239;48.714;9.472;2022-08-02T04:36:51;99283.84;;;16.58;100.00
6413;BME280;3239;48.714;9.472;2022-08-02T04:39:18;99288.31;;;16.61;100.00
6413;BME280;3239;48.714;9.472;2022-08-02T04:41:44;99298.00;;;16.54;100.00
6413;BME280;3239;48.714;9.472;2022-08-02T04:44:13;99302.06;;;16.53;100.00
6413;BME280;3239;48.714;9.472;2022-08-02T04:46:40;99309.22;;;16.49;100.00
6413;BME280;3239;48.714;9.472;2022-08-02T04:49:07;99317.78;;;16.58;100.00
6413;BME280;3239;48.714;9.472;2022-08-02T04:51:38;99333.41;;;16.69;100.00
6413;BME280;3239;48.714;9.472;2022-08-02T04:54:06;99335.16;;;16.79;100.00
6413;BME280;3239;48.714;9.472;2022-08-02T04:56:32;99352.13;;;16.96;100.00
6413;BME280;3239;48.714;9.472;2022-08-02T04:58:58;99344.69;;;16.91;100.00
6413;BME280;3239;48.714;9.472;2022-08-02T05:01:24;99349.50;;;16.91;100.00
6413;BME280;3239;48.714;9.472;2022-08-02T05:03:50;99349.16;;;16.94;100.00
6413;BME280;3239;48.714;9.472;2022-08-02T05:06:16;99349.91;;;16.95;100.00
6413;BME280;3239;48.714;9.472;2022-08-02T05:08:45;99343.75;;;16.89;100.00
6413;BME280;3239;48.714;9.472;2022-08-02T05:11:11;99347.19;;;16.82;100.00
6413;BME280;3239;48.714;9.472;2022-08-02T05:13:36;99339.22;;;16.78;100.00
6413;BME280;3239;48.714;9.472;2022-08-02T05:16:02;99347.28;;;16.89;100.00
6413;BME280;3239;48.714;9.472;2022-08-02T05:18:29;99333.00;;;16.85;100.00
6413;BME280;3239;48.714;9.472;2022-08-02T05:20:55;99337.94;;;16.79;100.00
6413;BME280;3239;48.714;9.472;2022-08-02T05:23:21;99344.78;;;16.99;100.00
6413;BME280;3239;48.714;9.472;2022-08-02T05:25:47;99351.81;;;17.00;100.00
6413;BME280;3239;48.714;9.472;2022-08-02T05:28:12;99349.50;;;17.11;100.00
6413;BME280;3239;48.714;9.472;2022-08-02T05:30:39;99344.66;;;17.04;100.00
6413;BME280;3239;48.714;9.472;2022-08-02T05:33:05;99354.59;;;17.20;100.00
6413;BME280;3239;48.714;9.472;2022-08-02T05:35:31;99358.91;;;17.29;100.00
6413;BME280;3239;48.714;9.472;2022-08-02T05:37:57;99356.53;;;17.33;100.00
6413;BME280;3239;48.714;9.472;2022-08-02T05:40:23;99354.31;;;17.52;100.00
6413;BME280;3239;48.714;9.472;2022-08-02T05:42:49;99344.31;;;17.49;100.00
6413;BME280;3239;48.714;9.472;2022-08-02T05:45:15;99341.34;;;17.47;100.00
6413;BME280;3239;48.714;9.472;2022-08-02T05:47:41;99338.25;;;17.50;100.00
6413;BME280;3239;48.714;9.472;2022-08-02T05:50:08;99332.41;;;17.41;100.00
6413;BME280;3239;48.714;9.472;2022-08-02T05:53:03;99328.38;;;17.42;100.00
6413;BME280;3239;48.714;9.472;2022-08-02T05:55:46;99336.66;;;17.62;100.00
6413;BME280;3239;48.714;9.472;2022-08-02T05:59:11;99333.44;;;17.79;100.00
6413;BME280;3239;48.714;9.472;2022-08-02T06:01:37;99328.81;;;17.74;100.00
6413;BME280;3239;48.714;9.472;2022-08-02T06:04:07;99324.19;;;17.76;100.00
6413;BME280;3239;48.714;9.472;2022-08-02T06:06:35;99311.94;;;17.72;100.00
6413;BME280;3239;48.714;9.472;2022-08-02T06:09:09;99307.88;;;17.73;100.00
6413;BME280;3239;48.714;9.472;2022-08-02T06:11:40;99294.78;;;17.73;100.00
6413;BME280;3239;48.714;9.472;2022-08-02T06:14:07;99304.00;;;18.04;100.00
6413;BME280;3239;48.714;9.472;2022-08-02T06:16:33;99295.81;;;18.34;100.00
6413;BME280;3239;48.714;9.472;2022-08-02T06:19:00;99296.59;;;18.49;100.00
6413;BME280;3239;48.714;9.472;2022-08-02T06:21:27;99277.44;;;18.74;100.00
6413;BME280;3239;48.714;9.472;2022-08-02T06:23:54;99254.25;;;18.56;100.00
6413;BME280;3239;48.714;9.472;2022-08-02T06:26:24;99247.25;;;18.93;100.00
6413;BME280;3239;48.714;9.472;2022-08-02T06:28:53;99226.31;;;19.37;100.00
6413;BME280;3239;48.714;9.472;2022-08-02T06:31:19;99187.16;;;19.65;100.00
6413;BME280;3239;48.714;9.472;2022-08-02T06:33:45;99138.56;;;19.66;100.00
6413;BME280;3239;48.714;9.472;2022-08-02T06:36:49;99091.44;;;19.75;100.00
6413;BME280;3239;48.714;9.472;2022-08-02T06:39:30;99047.19;;;19.94;100.00
6413;BME280;3239;48.714;9.472;2022-08-02T06:42:00;98985.72;;;19.83;100.00
6413;BME280;3239;48.714;9.472;2022-08-02T06:44:28;98968.00;;;20.20;100.00
6413;BME280;3239;48.714;9.472;2022-08-02T06:46:54;98911.00;;;20.72;100.00
6413;BME280;3239;48.714;9.472;2022-08-02T06:49:20;98855.41;;;21.08;100.00
6413;BME280;3239;48.714;9.472;2022-08-02T06:51:45;98828.31;;;20.65;100.00
6413;BME280;3239;48.714;9.472;2022-08-02T06:54:11;98830.97;;;21.25;100.00
6413;BME280;3239;48.714;9.472;2022-08-02T06:56:37;98806.09;;;21.46;100.00
6413;BME280;3239;48.714;9.472;2022-08-02T06:59:03;98755.09;;;22.79;100.00
6413;BME280;3239;48.714;9.472;2022-08-02T07:01:29;98676.88;;;23.84;100.00
6413;BME280;3239;48.714;9.472;2022-08-02T07:03:54;98600.41;;;24.02;100.00
6413;BME280;3239;48.714;9.472;2022-08-02T07:06:20;98587.44;;;22.58;100.00
6413;BME280;3239;48.714;9.472;2022-08-02T07:08:46;98603.09;;;23.68;100.00
6413;BME280;3239;48.714;9.472;2022-08-02T07:11:12;98568.78;;;24.46;100.00
6413;BME280;3239;48.714;9.472;2022-08-02T07:13:37;98550.72;;;25.20;100.00
6413;BME280;3239;48.714;9.472;2022-08-02T07:16:04;98542.66;;;24.89;100.00
6413;BME280;3239;48.714;9.472;2022-08-02T07:18:29;98549.41;;;23.92;100.00
6413;BME280;3239;48.714;9.472;2022-08-02T07:20:55;98591.56;;;23.41;100.00
6413;BME280;3239;48.714;9.472;2022-08-02T07:23:21;98602.66;;;23.50;100.00
6413;BME280;3239;48.714;9.472;2022-08-02T07:25:47;98610.31;;;23.82;100.00
6413;BME280;3239;48.714;9.472;2022-08-02T07:28:14;98588.31;;;23.44;100.00
6413;BME280;3239;48.714;9.472;2022-08-02T07:30:41;98632.84;;;23.52;100.00
6413;BME280;3239;48.714;9.472;2022-08-02T07:33:07;98594.69;;;24.00;100.00
6413;BME280;3239;48.714;9.472;2022-08-02T07:35:34;98570.59;;;24.18;100.00
6413;BME280;3239;48.714;9.472;2022-08-02T07:38:00;98566.53;;;24.90;100.00
6413;BME280;3239;48.714;9.472;2022-08-02T07:40:26;98514.75;;;25.91;100.00
6413;BME280;3239;48.714;9.472;2022-08-02T07:42:55;98550.75;;;24.03;100.00
6413;BME280;3239;48.714;9.472;2022-08-02T07:45:22;98545.69;;;24.93;100.00
6413;BME280;3239;48.714;9.472;2022-08-02T07:47:49;98514.44;;;26.12;100.00
6413;BME280;3239;48.714;9.472;2022-08-02T07:50:18;98498.72;;;27.62;100.00
6413;BME280;3239;48.714;9.472;2022-08-02T07:52:45;98473.88;;;28.03;100.00
6413;BME280;3239;48.714;9.472;2022-08-02T07:55:13;98466.06;;;28.50;100.00
6413;BME280;3239;48.714;9.472;2022-08-02T07:57:40;98470.97;;;27.85;100.00
6413;BME280;3239;48.714;9.472;2022-08-02T08:00:07;98470.84;;;26.65;100.00
6413;BME280;3239;48.714;9.472;2022-08-02T08:02:34;98486.28;;;26.24;100.00
6413;BME280;3239;48.714;9.472;2022-08-02T08:05:00;98498.25;;;26.94;100.00
6413;BME280;3239;48.714;9.472;2022-08-02T08:07:26;98480.41;;;26.47;100.00
6413;BME280;3239;48.714;9.472;2022-08-02T08:09:53;98485.44;;;25.31;100.00
6413;BME280;3239;48.714;9.472;2022-08-02T08:12:19;98515.28;;;25.38;100.00
6413;BME280;3239;48.714;9.472;2022-08-02T08:14:45;98508.63;;;26.08;100.00
6413;BME280;3239;48.714;9.472;2022-08-02T08:17:11;98488.34;;;26.10;100.00
6413;BME280;3239;48.714;9.472;2022-08-02T08:19:37;98495.44;;;25.34;100.00
6413;BME280;3239;48.714;9.472;2022-08-02T08:22:03;98506.75;;;26.67;100.00
6413;BME280;3239;48.714;9.472;2022-08-02T08:24:30;98477.75;;;27.20;100.00
6413;BME280;3239;48.714;9.472;2022-08-02T08:26:56;98477.38;;;27.12;100.00
6413;BME280;3239;48.714;9.472;2022-08-02T08:29:23;98463.78;;;28.79;100.00
6413;BME280;3239;48.714;9.472;2022-08-02T08:31:49;98445.59;;;27.70;100.00
6413;BME280;3239;48.714;9.472;2022-08-02T08:34:15;98451.31;;;27.12;100.00
6413;BME280;3239;48.714;9.472;2022-08-02T08:36:41;98445.97;;;28.92;100.00
6413;BME280;3239;48.714;9.472;2022-08-02T08:39:07;98471.38;;;27.49;100.00
6413;BME280;3239;48.714;9.472;2022-08-02T08:41:35;98455.38;;;28.15;100.00
6413;BME280;3239;48.714;9.472;2022-08-02T08:44:01;98458.16;;;26.93;100.00
6413;BME280;3239;48.714;9.472;2022-08-02T08:46:31;98449.56;;;28.60;100.00
6413;BME280;3239;48.714;9.472;2022-08-02T08:49:08;98440.94;;;29.61;100.00
6413;BME280;3239;48.714;9.472;2022-08-02T08:51:41;98435.31;;;29.80;100.00
6413;BME280;3239;48.714;9.472;2022-08-02T08:54:14;98445.91;;;30.19;100.00
6413;BME280;3239;48.714;9.472;2022-08-02T08:56:42;98430.59;;;28.45;100.00
6413;BME280;3239;48.714;9.472;2022-08-02T08:59:08;98440.66;;;28.65;100.00
6413;BME280;3239;48.714;9.472;2022-08-02T09:01:34;98433.00;;;28.35;100.00
6413;BME280;3239;48.714;9.472;2022-08-02T09:04:01;98450.25;;;27.63;100.00
6413;BME280;3239;48.714;9.472;2022-08-02T09:06:27;98429.19;;;27.80;100.00
6413;BME280;3239;48.714;9.472;2022-08-02T09:08:53;98435.47;;;26.47;100.00
6413;BME280;3239;48.714;9.472;2022-08-02T09:11:23;98438.25;;;26.47;100.00
6413;BME280;3239;48.714;9.472;2022-08-02T09:13:53;98443.94;;;26.06;100.00
6413;BME280;3239;48.714;9.472;2022-08-02T09:16:39;98443.94;;;25.93;100.00
6413;BME280;3239;48.714;9.472;2022-08-02T09:19:25;98444.94;;;25.99;100.00
6413;BME280;3239;48.714;9.472;2022-08-02T09:22:07;98453.63;;;25.65;100.00
6413;BME280;3239;48.714;9.472;2022-08-02T09:24:48;98448.94;;;25.56;100.00
6413;BME280;3239;48.714;9.472;2022-08-02T09:27:21;98438.13;;;27.01;100.00
6413;BME280;3239;48.714;9.472;2022-08-02T09:29:51;98445.22;;;27.46;100.00
6413;BME280;3239;48.714;9.472;2022-08-02T09:32:17;98433.69;;;26.53;100.00
6413;BME280;3239;48.714;9.472;2022-08-02T09:34:49;98431.97;;;26.75;100.00
6413;BME280;3239;48.714;9.472;2022-08-02T09:37:29;98425.53;;;27.46;100.00
6413;BME280;3239;48.714;9.472;2022-08-02T09:39:57;98423.88;;;28.03;100.00
6413;BME280;3239;48.714;9.472;2022-08-02T09:42:28;98421.16;;;27.43;100.00
6413;BME280;3239;48.714;9.472;2022-08-02T09:45:00;98414.25;;;27.31;100.00
6413;BME280;3239;48.714;9.472;2022-08-02T09:47:27;98410.69;;;28.08;100.00
6413;BME280;3239;48.714;9.472;2022-08-02T09:49:55;98406.97;;;28.19;100.00
6413;BME280;3239;48.714;9.472;2022-08-02T09:52:29;98400.84;;;28.24;100.00
6413;BME280;3239;48.714;9.472;2022-08-02T09:55:03;98406.16;;;28.34;100.00
6413;BME280;3239;48.714;9.472;2022-08-02T09:57:30;98391.84;;;29.70;100.00
6413;BME280;3239;48.714;9.472;2022-08-02T09:59:58;98390.09;;;30.19;100.00
6413;BME280;3239;48.714;9.472;2022-08-02T10:02:25;98399.88;;;28.35;100.00
6413;BME280;3239;48.714;9.472;2022-08-02T10:04:51;98391.91;;;28.63;100.00
6413;BME280;3239;48.714;9.472;2022-08-02T10:07:17;98398.63;;;29.06;100.00
6413;BME280;3239;48.714;9.472;2022-08-02T10:09:44;98395.13;;;28.55;100.00
6413;BME280;3239;48.714;9.472;2022-08-02T10:12:12;98397.31;;;28.57;100.00
6413;BME280;3239;48.714;9.472;2022-08-02T10:14:38;98395.06;;;29.06;100.00
6413;BME280;3239;48.714;9.472;2022-08-02T10:17:06;98386.16;;;29.31;100.00
6413;BME280;3239;48.714;9.472;2022-08-02T10:19:32;98387.25;;;28.69;100.00
6413;BME280;3239;48.714;9.472;2022-08-02T10:22:10;98380.34;;;29.27;100.00
6413;BME280;3239;48.714;9.472;2022-08-02T10:24:38;98383.81;;;30.21;96.26
6413;BME280;3239;48.714;9.472;2022-08-02T10:27:19;98375.00;;;30.97;85.60
6413;BME280;3239;48.714;9.472;2022-08-02T10:29:49;98369.59;;;32.03;70.66
6413;BME280;3239;48.714;9.472;2022-08-02T10:32:28;98376.63;;;30.80;82.50
6413;BME280;3239;48.714;9.472;2022-08-02T10:35:24;98370.25;;;30.39;83.42
6413;BME280;3239;48.714;9.472;2022-08-02T10:37:59;98369.63;;;31.07;73.68
6413;BME280;3239;48.714;9.472;2022-08-02T10:40:48;98365.47;;;31.80;68.06
6413;BME280;3239;48.714;9.472;2022-08-02T10:49:21;98348.31;;;30.16;71.44
6413;BME280;3239;48.714;9.472;2022-08-02T10:57:03;98360.19;;;30.12;64.27
6413;BME280;3239;48.714;9.472;2022-08-02T10:59:38;98347.56;;;30.15;62.97
6413;BME280;3239;48.714;9.472;2022-08-02T11:02:05;98346.25;;;30.18;65.16
6413;BME280;3239;48.714;9.472;2022-08-02T11:09:35;98333.69;;;29.82;59.21
6413;BME280;3239;48.714;9.472;2022-08-02T11:14:39;98339.22;;;29.22;68.17
6413;BME280;3239;48.714;9.472;2022-08-02T11:17:06;98328.44;;;28.11;83.14
6413;BME280;3239;48.714;9.472;2022-08-02T11:19:34;98327.00;;;27.62;88.92
6413;BME280;3239;48.714;9.472;2022-08-02T11:22:10;98329.59;;;27.73;86.52
6413;BME280;3239;48.714;9.472;2022-08-02T11:24:38;98322.41;;;27.22;94.49
6413;BME280;3239;48.714;9.472;2022-08-02T11:27:17;98330.53;;;27.16;97.89
6413;BME280;3239;48.714;9.472;2022-08-02T11:29:45;98322.66;;;27.43;88.60
6413;BME280;3239;48.714;9.472;2022-08-02T11:32:21;98318.41;;;27.27;79.99
6413;BME280;3239;48.714;9.472;2022-08-02T11:34:51;98326.81;;;26.96;90.13
6413;BME280;3239;48.714;9.472;2022-08-02T11:37:31;98319.22;;;27.14;89.08
6413;BME280;3239;48.714;9.472;2022-08-02T11:39:59;98318.34;;;27.89;99.04
6413;BME280;3239;48.714;9.472;2022-08-02T11:42:39;98318.47;;;28.08;89.18
6413;BME280;3239;48.714;9.472;2022-08-02T11:45:07;98310.63;;;28.07;83.62
6413;BME280;3239;48.714;9.472;2022-08-02T11:47:48;98313.81;;;27.04;89.36
6413;BME280;3239;48.714;9.472;2022-08-02T11:50:14;98313.03;;;27.33;93.48
6413;BME280;3239;48.714;9.472;2022-08-02T11:52:41;98300.53;;;27.36;74.95
6413;BME280;3239;48.714;9.472;2022-08-02T11:55:09;98297.66;;;27.82;75.20
6413;BME280;3239;48.714;9.472;2022-08-02T11:57:36;98306.38;;;27.73;87.16
6413;BME280;3239;48.714;9.472;2022-08-02T12:00:15;98304.97;;;27.41;84.44
6413;BME280;3239;48.714;9.472;2022-08-02T12:02:46;98311.25;;;27.72;80.02
6413;BME280;3239;48.714;9.472;2022-08-02T12:05:21;98301.53;;;27.75;72.93
6413;BME280;3239;48.714;9.472;2022-08-02T12:07:50;98304.56;;;27.64;74.28
6413;BME280;3239;48.714;9.472;2022-08-02T12:10:21;98301.69;;;27.95;80.16
6413;BME280;3239;48.714;9.472;2022-08-02T12:12:54;98300.44;;;28.33;70.47
6413;BME280;3239;48.714;9.472;2022-08-02T12:15:41;98296.66;;;28.26;71.41
6413;BME280;3239;48.714;9.472;2022-08-02T12:18:21;98300.16;;;27.92;67.19
6413;BME280;3239;48.714;9.472;2022-08-02T12:21:24;98298.31;;;27.65;65.07
6413;BME280;3239;48.714;9.472;2022-08-02T12:23:51;98294.63;;;27.94;62.95
6413;BME280;3239;48.714;9.472;2022-08-02T12:26:17;98295.00;;;27.86;57.13
6413;BME280;3239;48.714;9.472;2022-08-02T12:28:42;98284.03;;;27.77;53.87
6413;BME280;3239;48.714;9.472;2022-08-02T12:31:10;98291.09;;;28.28;53.41
6413;BME280;3239;48.714;9.472;2022-08-02T12:33:53;98288.28;;;28.28;47.02
6413;BME280;3239;48.714;9.472;2022-08-02T12:36:25;98286.38;;;28.50;52.22
6413;BME280;3239;48.714;9.472;2022-08-02T12:38:59;98287.78;;;28.34;56.84
6413;BME280;3239;48.714;9.472;2022-08-02T12:41:27;98287.13;;;28.51;61.30
6413;BME280;3239;48.714;9.472;2022-08-02T12:43:54;98287.44;;;27.91;60.25
6413;BME280;3239;48.714;9.472;2022-08-02T12:46:22;98286.72;;;27.90;57.47
6413;BME280;3239;48.714;9.472;2022-08-02T12:48:49;98277.50;;;28.23;53.86
6413;BME280;3239;48.714;9.472;2022-08-02T12:51:26;98268.81;;;28.34;52.90
6413;BME280;3239;48.714;9.472;2022-08-02T12:54:39;98277.25;;;28.17;53.07
6413;BME280;3239;48.714;9.472;2022-08-02T12:57:13;98271.81;;;28.38;52.09
6413;BME280;3239;48.714;9.472;2022-08-02T12:59:41;98259.88;;;28.94;53.85
6413;BME280;3239;48.714;9.472;2022-08-02T13:02:10;98260.94;;;29.42;54.38
6413;BME280;3239;48.714;9.472;2022-08-02T13:04:36;98255.44;;;29.65;54.16
6413;BME280;3239;48.714;9.472;2022-08-02T13:07:03;98245.28;;;29.00;54.31
6413;BME280;3239;48.714;9.472;2022-08-02T13:09:43;98252.75;;;28.74;58.12
6413;BME280;3239;48.714;9.472;2022-08-02T13:12:10;98257.75;;;29.12;56.05
6413;BME280;3239;48.714;9.472;2022-08-02T13:14:36;98255.63;;;28.76;61.81
6413;BME280;3239;48.714;9.472;2022-08-02T13:17:04;98257.19;;;28.79;55.12
6413;BME280;3239;48.714;9.472;2022-08-02T13:19:29;98249.09;;;28.89;55.01
6413;BME280;3239;48.714;9.472;2022-08-02T13:21:55;98247.75;;;28.72;51.66
6413;BME280;3239;48.714;9.472;2022-08-02T13:24:21;98250.41;;;28.68;51.91
6413;BME280;3239;48.714;9.472;2022-08-02T13:26:47;98250.06;;;28.58;53.33
6413;BME280;3239;48.714;9.472;2022-08-02T13:29:13;98246.50;;;28.40;52.73
6413;BME280;3239;48.714;9.472;2022-08-02T13:31:39;98255.19;;;29.01;53.73
6413;BME280;3239;48.714;9.472;2022-08-02T13:34:06;98245.44;;;28.67;54.28
6413;BME280;3239;48.714;9.472;2022-08-02T13:36:34;98243.88;;;28.81;52.18
6413;BME280;3239;48.714;9.472;2022-08-02T13:39:02;98240.69;;;28.91;51.68
6413;BME280;3239;48.714;9.472;2022-08-02T13:41:30;98233.00;;;29.11;51.39
6413;BME280;3239;48.714;9.472;2022-08-02T13:43:56;98237.47;;;28.98;52.96
6413;BME280;3239;48.714;9.472;2022-08-02T13:46:22;98230.25;;;29.13;53.19
6413;BME280;3239;48.714;9.472;2022-08-02T13:48:47;98233.34;;;29.40;55.93
6413;BME280;3239;48.714;9.472;2022-08-02T13:51:13;98232.13;;;29.26;52.23